Time;durP1;ratioP1;P1;durP2;ratioP2;P2;SDS_P1;SDS_P2;PMS_P1;PMS_P2;Temp;Humidity;BMP_temperature;BMP_pressure;BME280_temperature;BME280_humidity;BME280_pressure;Samples;Min_cycle;Max_cycle;Signal;HPM_P1;HPM_P2
2024/02/06 00:03:03;;;;;;;;;;;;;;;7.83;94.43;95163.66;10467682;28;19973;-85
2024/02/06 00:08:04;;;;;;;;;;;;;;;8.07;93.69;95158.09;10482033;28;20375;-77
2024/02/06 00:13:04;;;;;;;;;;;;;;;7.98;94.80;95171.91;10472764;28;20294;-80
2024/02/06 00:18:04;;;;;;;;;;;;;;;8.10;94.46;95161.06;10471937;28;19920;-78
2024/02/06 00:23:05;;;;;;;;;;;;;;;8.06;95.24;95167.19;10462762;28;19986;-79
2024/02/06 00:28:07;;;;;;;;;;;;;;;8.07;96.20;95158.91;10465297;28;19920;-81
2024/02/06 00:33:07;;;;;;;;;;;;;;;7.88;97.27;95158.34;10476879;28;19920;-79
2024/02/06 00:38:08;;;;;;;;;;;;;;;7.77;96.16;95153.91;10487528;28;19912;-80
2024/02/06 00:43:08;;;;;;;;;;;;;;;7.72;96.35;95148.47;10492617;28;20314;-80
2024/02/06 00:48:08;;;;;;;;;;;;;;;7.74;94.02;95143.69;10486630;28;20317;-81
2024/02/06 00:53:08;;;;;;;;;;;;;;;7.85;91.48;95148.13;10488234;28;19913;-81
2024/02/06 00:58:09;;;;;;;;;;;;;;;7.92;88.75;95139.94;10472461;28;19916;-81
2024/02/06 01:03:09;;;;;;;;;;;;;;;8.01;86.58;95149.97;10492148;28;20369;-80
2024/02/06 01:08:10;;;;;;;;;;;;;;;8.12;85.59;95152.78;10481022;28;20035;-81
2024/02/06 01:13:10;;;;;;;;;;;;;;;8.16;84.71;95153.91;10485782;28;19964;-80
2024/02/06 01:18:11;;;;;;;;;;;;;;;8.18;83.58;95143.78;10488086;28;19962;-78
2024/02/06 01:23:11;;;;;;;;;;;;;;;8.21;82.28;95148.63;10475877;28;20366;-80
2024/02/06 01:28:12;;;;;;;;;;;;;;;8.21;82.10;95154.78;10476063;28;19917;-79
2024/02/06 01:33:12;;;;;;;;;;;;;;;8.28;80.93;95151.94;10469516;28;20054;-79
2024/02/06 01:38:17;;;;;;;;;;;;;;;8.36;80.04;95146.16;10473942;28;19924;-81
2024/02/06 01:43:17;;;;;;;;;;;;;;;8.31;82.04;95156.78;10473860;28;19976;-81
2024/02/06 01:48:18;;;;;;;;;;;;;;;8.28;81.28;95169.88;10473719;28;20007;-79
2024/02/06 01:53:19;;;;;;;;;;;;;;;8.05;82.08;95163.66;10473583;28;19969;-80
2024/02/06 01:58:20;;;;;;;;;;;;;;;7.80;85.00;95169.47;10471317;28;19944;-81
2024/02/06 02:03:21;;;;;;;;;;;;;;;7.42;89.46;95168.34;10469829;28;20346;-80
2024/02/06 02:08:22;;;;;;;;;;;;;;;6.88;97.15;95158.88;10472960;28;19981;-80
2024/02/06 02:13:22;;;;;;;;;;;;;;;6.77;98.77;95149.84;10473713;28;20038;-80
2024/02/06 02:18:29;;;;;;;;;;;;;;;7.00;98.03;95146.28;10459415;28;19938;-80
2024/02/06 02:23:29;;;;;;;;;;;;;;;7.00;97.14;95143.59;10467181;28;19917;-80
2024/02/06 02:28:29;;;;;;;;;;;;;;;6.83;98.21;95154.22;10474783;28;19939;-79
2024/02/06 02:33:30;;;;;;;;;;;;;;;6.79;98.58;95157.63;10474161;28;19991;-80
2024/02/06 02:38:30;;;;;;;;;;;;;;;6.92;99.22;95161.84;10472550;28;19919;-82
2024/02/06 02:43:30;;;;;;;;;;;;;;;7.02;97.94;95159.38;10475287;28;19943;-80
2024/02/06 02:48:31;;;;;;;;;;;;;;;7.11;97.80;95159.81;10481394;28;19929;-80
2024/02/06 02:53:31;;;;;;;;;;;;;;;7.06;97.91;95171.22;10477959;28;19955;-79
2024/02/06 02:58:31;;;;;;;;;;;;;;;7.00;98.27;95178.34;10480751;28;19920;-81
2024/02/06 03:03:31;;;;;;;;;;;;;;;6.86;99.73;95184.19;10479829;28;20390;-80
2024/02/06 03:08:32;;;;;;;;;;;;;;;6.69;100.00;95195.63;10477211;28;19921;-80
2024/02/06 03:13:32;;;;;;;;;;;;;;;6.72;100.00;95194.34;10479211;28;20286;-80
2024/02/06 03:18:33;;;;;;;;;;;;;;;6.59;100.00;95195.44;10481107;28;20031;-80
2024/02/06 03:23:33;;;;;;;;;;;;;;;6.55;100.00;95210.31;10479048;28;19919;-78
2024/02/06 03:28:33;;;;;;;;;;;;;;;6.32;100.00;95210.13;10473294;28;19916;-78
2024/02/06 03:33:35;;;;;;;;;;;;;;;6.38;100.00;95216.38;10478958;28;19912;-77
2024/02/06 03:38:36;;;;;;;;;;;;;;;6.04;100.00;95218.03;10492159;28;19916;-79
2024/02/06 03:43:36;;;;;;;;;;;;;;;6.12;100.00;95210.47;10477686;28;19924;-79
2024/02/06 03:48:36;;;;;;;;;;;;;;;6.12;100.00;95210.47;10477911;28;19959;-78
2024/02/06 03:53:36;;;;;;;;;;;;;;;6.14;100.00;95207.59;10486334;28;19943;-79
2024/02/06 03:58:37;;;;;;;;;;;;;;;6.10;100.00;95209.91;10477709;28;19912;-79
2024/02/06 04:03:37;;;;;;;;;;;;;;;6.12;100.00;95207.78;10477481;28;19920;-80
2024/02/06 04:08:37;;;;;;;;;;;;;;;6.04;100.00;95210.84;10476709;28;19928;-78
2024/02/06 04:13:38;;;;;;;;;;;;;;;6.21;100.00;95208.28;10474885;28;20402;-80
2024/02/06 04:18:38;;;;;;;;;;;;;;;6.08;100.00;95209.31;10476156;28;19939;-78
2024/02/06 04:23:39;;;;;;;;;;;;;;;6.03;100.00;95211.88;10454433;28;20561;-78
2024/02/06 04:28:39;;;;;;;;;;;;;;;6.06;100.00;95218.63;10475408;28;19919;-78
2024/02/06 04:33:41;;;;;;;;;;;;;;;5.92;100.00;95220.66;10475971;28;19919;-79
2024/02/06 04:38:41;;;;;;;;;;;;;;;5.82;100.00;95213.25;10474205;28;19986;-78
2024/02/06 04:43:42;;;;;;;;;;;;;;;5.62;100.00;95217.06;10473478;28;19970;-79
2024/02/06 04:48:42;;;;;;;;;;;;;;;5.55;100.00;95213.66;10474407;28;20431;-79
2024/02/06 04:53:42;;;;;;;;;;;;;;;5.58;100.00;95223.88;10478434;28;19922;-79
2024/02/06 04:58:42;;;;;;;;;;;;;;;5.56;100.00;95239.28;10492438;28;20394;-79
2024/02/06 05:03:43;;;;;;;;;;;;;;;5.46;100.00;95234.50;10453493;28;20314;-79
2024/02/06 05:08:44;;;;;;;;;;;;;;;5.40;100.00;95239.94;10473603;28;19921;-80
2024/02/06 05:13:44;;;;;;;;;;;;;;;5.36;100.00;95234.25;10472442;28;19970;-79
2024/02/06 05:18:44;;;;;;;;;;;;;;;5.33;100.00;95229.41;10467903;28;19912;-80
2024/02/06 05:23:45;;;;;;;;;;;;;;;5.36;100.00;95234.25;10473169;28;19917;-79
2024/02/06 05:28:45;;;;;;;;;;;;;;;5.37;100.00;95238.56;10473788;28;19920;-80
2024/02/06 05:33:46;;;;;;;;;;;;;;;5.39;100.00;95243.66;10454665;28;20584;-80
2024/02/06 05:38:46;;;;;;;;;;;;;;;5.47;100.00;95243.34;10455254;28;19932;-80
2024/02/06 05:43:46;;;;;;;;;;;;;;;5.55;100.00;95248.31;10472235;28;19923;-82
2024/02/06 05:48:46;;;;;;;;;;;;;;;5.65;100.00;95245.91;10461069;28;20351;-81
2024/02/06 05:53:47;;;;;;;;;;;;;;;5.70;100.00;95236.41;10473323;28;19913;-81
2024/02/06 05:58:47;;;;;;;;;;;;;;;5.75;100.00;95237.34;10457285;28;20014;-78
2024/02/06 06:03:48;;;;;;;;;;;;;;;5.90;100.00;95238.75;10473067;28;20170;-81
2024/02/06 06:08:48;;;;;;;;;;;;;;;5.86;100.00;95246.41;10472148;28;19920;-80
2024/02/06 06:13:49;;;;;;;;;;;;;;;5.89;100.00;95253.94;10473561;28;19920;-81
2024/02/06 06:18:49;;;;;;;;;;;;;;;6.04;100.00;95250.88;10475767;28;19920;-80
2024/02/06 06:23:50;;;;;;;;;;;;;;;6.25;100.00;95251.31;10461478;28;20406;-80
2024/02/06 06:28:50;;;;;;;;;;;;;;;6.38;100.00;95251.06;10479275;28;19913;-80
2024/02/06 06:33:51;;;;;;;;;;;;;;;6.43;99.19;95248.53;10469648;28;19963;-82
2024/02/06 06:38:51;;;;;;;;;;;;;;;6.53;96.05;95247.94;10479425;28;19920;-81
2024/02/06 06:43:52;;;;;;;;;;;;;;;6.63;94.29;95250.00;10437724;28;19927;-80
2024/02/06 06:48:52;;;;;;;;;;;;;;;6.77;91.06;95245.22;10437908;28;20390;-79
2024/02/06 06:53:52;;;;;;;;;;;;;;;6.79;92.37;95245.78;10436577;28;19936;-80
2024/02/06 06:58:52;;;;;;;;;;;;;;;6.88;86.83;95235.53;10437652;28;19966;-80
2024/02/06 07:03:53;;;;;;;;;;;;;;;7.12;84.25;95242.41;10436987;28;19942;-79
2024/02/06 07:08:53;;;;;;;;;;;;;;;7.40;85.68;95229.28;10436640;28;19925;-81
2024/02/06 07:13:54;;;;;;;;;;;;;;;7.60;82.48;95229.63;10434873;28;19913;-80
2024/02/06 07:18:55;;;;;;;;;;;;;;;8.45;79.83;95228.78;10435216;28;19923;-80
2024/02/06 07:23:55;;;;;;;;;;;;;;;10.99;63.48;95212.72;10438084;28;19975;-81
2024/02/06 07:28:55;;;;;;;;;;;;;;;12.74;51.96;95199.31;10434833;28;19916;-81
2024/02/06 07:33:55;;;;;;;;;;;;;;;14.23;48.72;95191.34;10436266;28;20336;-81
2024/02/06 07:38:56;;;;;;;;;;;;;;;16.32;43.92;95194.28;10426099;28;21167;-80
2024/02/06 07:43:57;;;;;;;;;;;;;;;16.96;40.36;95196.41;10413540;28;19917;-80
2024/02/06 07:48:57;;;;;;;;;;;;;;;16.68;39.83;95201.00;10422714;28;19923;-80
2024/02/06 07:53:58;;;;;;;;;;;;;;;17.72;37.36;95185.00;10433971;28;20370;-81
2024/02/06 07:58:59;;;;;;;;;;;;;;;17.31;37.49;95187.81;10432348;28;19919;-80
2024/02/06 08:03:59;;;;;;;;;;;;;;;16.41;39.26;95194.44;10434046;28;20390;-81
2024/02/06 08:08:59;;;;;;;;;;;;;;;17.09;37.42;95183.91;10433900;28;20344;-81
2024/02/06 08:14:03;;;;;;;;;;;;;;;17.97;35.85;95182.78;10432793;28;19917;-81
2024/02/06 08:19:03;;;;;;;;;;;;;;;18.96;34.70;95176.44;10434627;28;19919;-81
2024/02/06 08:24:04;;;;;;;;;;;;;;;20.53;32.17;95169.44;10433088;28;20358;-80
2024/02/06 08:29:04;;;;;;;;;;;;;;;22.20;30.37;95170.03;10434682;28;19955;-82
2024/02/06 08:34:04;;;;;;;;;;;;;;;22.59;28.50;95172.56;10434162;28;19976;-80
2024/02/06 08:39:06;;;;;;;;;;;;;;;23.77;27.10;95158.28;10432717;28;20473;-80
2024/02/06 08:44:08;;;;;;;;;;;;;;;24.06;26.17;95163.47;10472340;28;19923;-80
2024/02/06 08:49:09;;;;;;;;;;;;;;;23.07;26.87;95159.28;10473669;28;20365;-81
2024/02/06 08:54:10;;;;;;;;;;;;;;;20.33;28.79;95171.72;10455831;28;19918;-81
2024/02/06 08:59:10;;;;;;;;;;;;;;;19.11;31.16;95176.00;10473745;28;20486;-81
2024/02/06 09:04:10;;;;;;;;;;;;;;;18.26;33.44;95176.91;10453890;28;19920;-82
2024/02/06 09:09:12;;;;;;;;;;;;;;;18.67;32.67;95175.06;10468975;28;20535;-80
2024/02/06 09:14:12;;;;;;;;;;;;;;;18.10;33.11;95179.22;10473362;28;20003;-82
2024/02/06 09:19:13;;;;;;;;;;;;;;;17.07;34.12;95178.78;10454176;28;19912;-80
2024/02/06 09:24:13;;;;;;;;;;;;;;;18.20;34.00;95175.44;10471686;28;20019;-81
2024/02/06 09:29:13;;;;;;;;;;;;;;;18.42;33.80;95157.50;10452349;28;20434;-81
2024/02/06 09:34:14;;;;;;;;;;;;;;;18.57;33.59;95151.63;10472058;28;19995;-80
2024/02/06 09:39:14;;;;;;;;;;;;;;;19.17;31.39;95141.25;10470300;28;19970;-81
2024/02/06 09:44:16;;;;;;;;;;;;;;;19.40;31.83;95135.69;10470913;28;19917;-80
2024/02/06 09:49:17;;;;;;;;;;;;;;;19.74;32.01;95120.44;10484686;28;19912;-80
2024/02/06 09:54:19;;;;;;;;;;;;;;;20.25;30.91;95110.59;10470603;28;19916;-81
2024/02/06 09:59:20;;;;;;;;;;;;;;;21.48;29.90;95109.97;10468161;28;19912;-81
2024/02/06 10:04:21;;;;;;;;;;;;;;;23.23;27.63;95085.38;10451908;28;20314;-82
2024/02/06 10:09:21;;;;;;;;;;;;;;;25.21;25.47;95072.13;10469575;28;19917;-81
2024/02/06 10:14:22;;;;;;;;;;;;;;;25.81;24.26;95056.47;10471126;28;20422;-82
2024/02/06 10:19:32;;;;;;;;;;;;;;;26.43;23.60;95042.69;10472790;28;20391;-80
2024/02/06 10:24:32;;;;;;;;;;;;;;;28.18;21.43;95022.59;10452911;28;19916;-80
2024/02/06 10:29:34;;;;;;;;;;;;;;;27.83;21.48;95019.03;10472160;28;20279;-81
2024/02/06 10:34:34;;;;;;;;;;;;;;;28.85;20.45;94999.47;10453038;28;19916;-80
2024/02/06 10:39:35;;;;;;;;;;;;;;;28.99;20.35;94996.00;10453462;28;19927;-81
2024/02/06 10:44:36;;;;;;;;;;;;;;;27.67;21.24;94993.59;10468599;28;19921;-81
2024/02/06 10:49:38;;;;;;;;;;;;;;;27.77;21.13;94976.38;10454605;28;20418;-81
2024/02/06 10:54:38;;;;;;;;;;;;;;;28.09;20.53;94967.63;10452601;28;19917;-79
2024/02/06 10:59:46;;;;;;;;;;;;;;;30.81;19.08;94962.81;10472347;28;20438;-81
2024/02/06 11:04:46;;;;;;;;;;;;;;;30.80;18.83;94944.59;10455242;28;20306;-81
2024/02/06 11:09:47;;;;;;;;;;;;;;;32.62;17.67;94927.34;10478523;28;19926;-79
2024/02/06 11:14:48;;;;;;;;;;;;;;;33.73;16.12;94916.97;10478008;28;19923;-81
2024/02/06 11:19:53;;;;;;;;;;;;;;;34.36;16.30;94912.88;10475752;28;20322;-82
2024/02/06 11:24:54;;;;;;;;;;;;;;;34.31;16.22;94888.25;10457487;28;19916;-81
2024/02/06 11:29:55;;;;;;;;;;;;;;;34.30;16.23;94892.28;10477401;28;20007;-82
2024/02/06 11:34:55;;;;;;;;;;;;;;;34.43;16.01;94883.25;10460456;28;20391;-82
2024/02/06 11:40:11;;;;;;;;;;;;;;;33.17;16.94;94877.47;10477205;28;19978;-81
2024/02/06 11:45:18;;;;;;;;;;;;;;;32.46;17.27;94865.91;10476833;28;19916;-80
2024/02/06 11:50:25;;;;;;;;;;;;;;;33.08;16.87;94850.13;10477937;28;20393;-81
2024/02/06 11:55:25;;;;;;;;;;;;;;;32.50;17.15;94842.44;10474893;28;19913;-81
2024/02/06 12:00:26;;;;;;;;;;;;;;;30.73;17.58;94839.97;10475958;28;20247;-80
2024/02/06 12:05:27;;;;;;;;;;;;;;;27.44;20.35;94835.22;10475200;28;20019;-80
2024/02/06 12:10:33;;;;;;;;;;;;;;;24.79;22.21;94835.56;10477018;28;20271;-81
2024/02/06 12:15:34;;;;;;;;;;;;;;;23.69;22.67;94828.78;10475660;28;20003;-82
2024/02/06 12:20:35;;;;;;;;;;;;;;;22.65;23.83;94821.34;10477032;28;20003;-80
2024/02/06 12:25:36;;;;;;;;;;;;;;;21.72;25.24;94807.59;10475495;28;19916;-83
2024/02/06 12:30:36;;;;;;;;;;;;;;;21.16;25.83;94811.63;10476570;28;20303;-81
2024/02/06 12:35:38;;;;;;;;;;;;;;;20.88;26.26;94789.63;10475400;28;19922;-80
2024/02/06 12:40:38;;;;;;;;;;;;;;;20.58;26.15;94795.97;10474404;28;19950;-81
2024/02/06 12:45:40;;;;;;;;;;;;;;;20.32;26.74;94797.00;10474702;28;20347;-82
2024/02/06 12:50:41;;;;;;;;;;;;;;;19.91;27.01;94795.88;10456535;28;20389;-81
2024/02/06 12:55:41;;;;;;;;;;;;;;;19.79;28.03;94787.56;10474420;28;19954;-81
2024/02/06 13:00:41;;;;;;;;;;;;;;;19.75;27.54;94775.72;10474394;28;20471;-80
2024/02/06 13:05:44;;;;;;;;;;;;;;;19.37;27.97;94774.66;10473967;28;20424;-80
2024/02/06 13:10:44;;;;;;;;;;;;;;;19.19;28.10;94765.75;10456198;28;19970;-82
2024/02/06 13:15:45;;;;;;;;;;;;;;;19.10;28.44;94762.25;10474667;28;19912;-81
2024/02/06 13:20:54;;;;;;;;;;;;;;;19.08;28.26;94746.22;10455950;28;19920;-83
2024/02/06 13:25:55;;;;;;;;;;;;;;;19.01;28.51;94743.22;10455121;28;20311;-81
2024/02/06 13:30:55;;;;;;;;;;;;;;;19.06;28.67;94750.41;10473972;28;19919;-81
2024/02/06 13:35:56;;;;;;;;;;;;;;;18.90;28.34;94739.25;10473482;28;20369;-82
2024/02/06 13:40:57;;;;;;;;;;;;;;;18.65;29.08;94741.69;10457619;28;19920;-79
2024/02/06 13:45:57;;;;;;;;;;;;;;;18.41;29.80;94742.25;10430624;28;19917;-82
2024/02/06 13:50:57;;;;;;;;;;;;;;;18.26;30.22;94738.09;10431762;28;19913;-81
2024/02/06 13:55:58;;;;;;;;;;;;;;;18.19;30.37;94741.28;10430411;28;20390;-81
2024/02/06 14:00:58;;;;;;;;;;;;;;;17.93;30.66;94742.13;10432306;28;20359;-82
2024/02/06 14:05:58;;;;;;;;;;;;;;;17.93;31.05;94741.28;10427654;28;19979;-82
2024/02/06 14:10:59;;;;;;;;;;;;;;;17.94;30.85;94737.47;10442116;28;19919;-82
2024/02/06 14:16:00;;;;;;;;;;;;;;;17.60;31.26;94736.31;10429748;28;20541;-82
2024/02/06 14:21:01;;;;;;;;;;;;;;;17.65;31.02;94733.44;10429165;28;19917;-83
2024/02/06 14:26:04;;;;;;;;;;;;;;;17.69;31.06;94723.50;10429753;28;20591;-80
2024/02/06 14:31:04;;;;;;;;;;;;;;;17.58;31.00;94719.50;10430284;28;19934;-81
2024/02/06 14:36:04;;;;;;;;;;;;;;;17.56;31.49;94714.38;10430434;28;20313;-81
2024/02/06 14:41:05;;;;;;;;;;;;;;;17.49;31.27;94718.72;10434725;28;19925;-82
2024/02/06 14:46:05;;;;;;;;;;;;;;;17.40;31.53;94707.81;10439351;28;19928;-81
2024/02/06 14:51:05;;;;;;;;;;;;;;;17.30;31.17;94703.47;10439525;28;19912;-80
2024/02/06 14:56:08;;;;;;;;;;;;;;;17.29;31.94;94709.22;10437043;28;20616;-82
2024/02/06 15:01:09;;;;;;;;;;;;;;;17.18;31.78;94695.94;10434870;28;20296;-82
2024/02/06 15:06:14;;;;;;;;;;;;;;;17.08;32.07;94696.25;10424676;28;19926;-80
2024/02/06 15:11:14;;;;;;;;;;;;;;;16.91;32.61;94694.25;10447581;28;19913;-81
2024/02/06 15:16:15;;;;;;;;;;;;;;;16.79;32.86;94678.56;10430371;28;19916;-81
2024/02/06 15:21:15;;;;;;;;;;;;;;;16.64;33.55;94681.69;10423663;28;19969;-80
2024/02/06 15:26:26;;;;;;;;;;;;;;;16.40;33.64;94680.16;10441826;28;19917;-82
2024/02/06 15:31:26;;;;;;;;;;;;;;;16.17;33.78;94679.38;10436661;28;20419;-81
2024/02/06 15:36:26;;;;;;;;;;;;;;;16.09;34.27;94672.78;10436257;28;20008;-82
2024/02/06 15:41:26;;;;;;;;;;;;;;;15.79;35.32;94674.31;10435694;28;19928;-81
2024/02/06 15:46:27;;;;;;;;;;;;;;;15.66;35.96;94671.34;10422574;28;20114;-83
2024/02/06 15:51:27;;;;;;;;;;;;;;;15.27;36.84;94680.09;10435102;28;19919;-81
2024/02/06 15:56:34;;;;;;;;;;;;;;;14.88;35.59;94674.13;10436399;28;20007;-82
2024/02/06 16:01:37;;;;;;;;;;;;;;;14.82;35.72;94681.53;10436716;28;19916;-81
2024/02/06 16:06:37;;;;;;;;;;;;;;;14.74;33.56;94676.81;10438615;28;19920;-81
2024/02/06 16:11:45;;;;;;;;;;;;;;;14.65;33.15;94675.91;10436120;28;19913;-81
2024/02/06 16:16:47;;;;;;;;;;;;;;;14.61;33.91;94677.59;10432565;28;19924;-81
2024/02/06 16:21:47;;;;;;;;;;;;;;;14.53;33.84;94689.91;10431955;28;19920;-81
2024/02/06 16:26:47;;;;;;;;;;;;;;;14.33;34.33;94691.06;10421301;28;20591;-81
2024/02/06 16:31:50;;;;;;;;;;;;;;;14.09;34.32;94677.72;10428097;28;20442;-82
2024/02/06 16:36:51;;;;;;;;;;;;;;;14.04;33.50;94681.31;10412912;28;19920;-91
2024/02/06 16:41:51;;;;;;;;;;;;;;;14.10;34.28;94682.81;10427043;28;19978;-82
2024/02/06 16:46:57;;;;;;;;;;;;;;;13.96;35.86;94685.47;10427212;28;20418;-87
2024/02/06 16:51:57;;;;;;;;;;;;;;;13.79;35.40;94688.72;10392155;28;20455;-89
2024/02/06 16:56:58;;;;;;;;;;;;;;;13.73;35.37;94684.53;10301245;28;19920;-78
2024/02/06 17:01:58;;;;;;;;;;;;;;;13.47;35.65;94684.09;10382471;28;19916;-78
2024/02/06 17:06:58;;;;;;;;;;;;;;;13.39;35.07;94685.53;10415929;28;20587;-80
2024/02/06 17:12:03;;;;;;;;;;;;;;;13.37;35.50;94695.84;10414764;28;20440;-79
2024/02/06 17:17:03;;;;;;;;;;;;;;;13.23;35.94;94690.34;10419075;28;20828;-79
2024/02/06 17:22:03;;;;;;;;;;;;;;;13.20;35.53;94707.13;10402647;28;19916;-79
2024/02/06 17:27:05;;;;;;;;;;;;;;;13.21;35.48;94716.00;10402057;28;19920;-79
2024/02/06 17:32:05;;;;;;;;;;;;;;;13.18;35.85;94717.38;10418624;28;19921;-78
2024/02/06 17:37:06;;;;;;;;;;;;;;;13.19;35.97;94715.50;10402756;28;20626;-81
2024/02/06 17:42:06;;;;;;;;;;;;;;;13.10;35.83;94705.34;10398193;28;19921;-78
2024/02/06 17:47:06;;;;;;;;;;;;;;;12.95;37.02;94719.81;10416990;28;19927;-78
2024/02/06 17:52:07;;;;;;;;;;;;;;;12.91;37.46;94710.69;10417986;28;19920;-77
2024/02/06 17:57:08;;;;;;;;;;;;;;;12.81;41.12;94714.31;10420953;28;19936;-79
2024/02/06 18:02:08;;;;;;;;;;;;;;;12.63;38.37;94713.16;10419709;28;19916;-80
2024/02/06 18:07:08;;;;;;;;;;;;;;;12.53;38.13;94724.06;10402226;28;19928;-79
2024/02/06 18:12:08;;;;;;;;;;;;;;;12.46;39.01;94723.59;10420469;28;19917;-79
2024/02/06 18:17:15;;;;;;;;;;;;;;;12.42;39.58;94719.84;10429501;28;20032;-78
2024/02/06 18:22:16;;;;;;;;;;;;;;;12.27;40.11;94712.75;10428691;28;20569;-79
2024/02/06 18:27:16;;;;;;;;;;;;;;;12.18;40.68;94715.25;10428795;28;19917;-77
2024/02/06 18:32:17;;;;;;;;;;;;;;;11.83;41.45;94725.19;10426166;28;20010;-78
2024/02/06 18:37:18;;;;;;;;;;;;;;;11.44;43.18;94718.72;10427994;28;19919;-80
2024/02/06 18:42:18;;;;;;;;;;;;;;;11.15;42.53;94720.50;10426822;28;19925;-80
2024/02/06 18:47:18;;;;;;;;;;;;;;;11.10;43.16;94718.66;10424985;28;20447;-79
2024/02/06 18:52:18;;;;;;;;;;;;;;;10.85;44.25;94719.56;10426133;28;19917;-81
2024/02/06 18:57:19;;;;;;;;;;;;;;;10.76;43.68;94717.44;10427901;28;19913;-79
2024/02/06 19:02:19;;;;;;;;;;;;;;;10.86;44.33;94705.84;10432125;28;19913;-79
2024/02/06 19:07:19;;;;;;;;;;;;;;;10.80;44.57;94717.72;10427677;28;20007;-79
2024/02/06 19:12:20;;;;;;;;;;;;;;;10.81;45.44;94710.44;10425890;28;19917;-79
2024/02/06 19:17:28;;;;;;;;;;;;;;;10.56;45.14;94717.50;10425436;28;19951;-79
2024/02/06 19:22:29;;;;;;;;;;;;;;;10.39;45.86;94717.81;10407767;28;19964;-78
2024/02/06 19:27:29;;;;;;;;;;;;;;;10.05;47.56;94732.59;10436046;28;19940;-79
2024/02/06 19:32:55;;;;;;;;;;;;;;;10.13;47.47;94728.59;10420053;28;19913;-80
2024/02/06 19:37:56;;;;;;;;;;;;;;;10.10;48.23;94729.09;10409377;28;19913;-83
2024/02/06 19:42:56;;;;;;;;;;;;;;;10.11;48.09;94738.78;10411652;28;19931;-81
2024/02/06 19:48:04;;;;;;;;;;;;;;;9.77;48.44;94730.44;10429647;28;19935;-82
2024/02/06 19:53:05;;;;;;;;;;;;;;;9.78;50.03;94734.75;10412437;28;19912;-82
2024/02/06 19:58:06;;;;;;;;;;;;;;;9.51;51.31;94731.22;10431237;28;20478;-82
2024/02/06 20:03:07;;;;;;;;;;;;;;;9.61;48.99;94729.66;10435701;28;20004;-85
2024/02/06 20:08:07;;;;;;;;;;;;;;;9.63;51.71;94725.63;10428525;28;20373;-80
2024/02/06 20:13:08;;;;;;;;;;;;;;;9.57;50.35;94729.38;10427480;28;19995;-79
2024/02/06 20:18:08;;;;;;;;;;;;;;;9.58;52.09;94741.72;10482808;23;19928;-78
2024/02/06 20:23:08;;;;;;;;;;;;;;;9.41;49.54;94736.59;10526333;28;19920;-77
2024/02/06 20:28:11;;;;;;;;;;;;;;;9.34;50.53;94738.72;10509518;28;20531;-77
2024/02/06 20:33:11;;;;;;;;;;;;;;;9.30;51.37;94748.38;10512829;28;19915;-79
2024/02/06 20:38:12;;;;;;;;;;;;;;;9.32;51.68;94743.53;10508392;28;19918;-80
2024/02/06 20:43:12;;;;;;;;;;;;;;;9.18;51.31;94753.97;10528460;28;20402;-77
2024/02/06 20:48:13;;;;;;;;;;;;;;;9.27;53.03;94746.22;10529131;28;20509;-78
2024/02/06 20:53:13;;;;;;;;;;;;;;;9.21;54.14;94740.84;10526235;28;19973;-78
2024/02/06 20:58:14;;;;;;;;;;;;;;;9.13;53.70;94751.28;10525596;28;19919;-77
2024/02/06 21:03:14;;;;;;;;;;;;;;;8.84;54.31;94752.50;10507782;28;19912;-81
2024/02/06 21:08:14;;;;;;;;;;;;;;;8.70;55.35;94754.03;10507308;28;20006;-80
2024/02/06 21:13:15;;;;;;;;;;;;;;;8.79;58.10;94740.94;10505953;28;19919;-77
2024/02/06 21:18:15;;;;;;;;;;;;;;;8.62;58.07;94752.66;10523740;28;19989;-77
2024/02/06 21:23:15;;;;;;;;;;;;;;;8.45;58.65;94744.00;10524759;28;19923;-83
2024/02/06 21:28:15;;;;;;;;;;;;;;;8.29;59.30;94737.69;10492925;28;19924;-81
2024/02/06 21:33:16;;;;;;;;;;;;;;;8.20;59.59;94746.25;10512865;28;19916;-77
2024/02/06 21:38:16;;;;;;;;;;;;;;;7.88;62.65;94738.22;10524224;28;19916;-81
2024/02/06 21:43:16;;;;;;;;;;;;;;;7.75;64.40;94738.69;10505523;28;20695;-77
2024/02/06 21:48:17;;;;;;;;;;;;;;;7.67;66.33;94742.59;10493423;28;19935;-80
2024/02/06 21:53:17;;;;;;;;;;;;;;;7.61;64.15;94736.41;10476001;28;19916;-79
2024/02/06 21:58:18;;;;;;;;;;;;;;;7.53;66.77;94742.22;10523159;28;20003;-81
2024/02/06 22:03:19;;;;;;;;;;;;;;;7.55;65.16;94747.31;10503817;28;19967;-81
2024/02/06 22:08:19;;;;;;;;;;;;;;;7.63;61.65;94739.66;10504121;28;19920;-76
2024/02/06 22:13:21;;;;;;;;;;;;;;;7.69;62.05;94735.94;10504494;28;19989;-77
2024/02/06 22:18:21;;;;;;;;;;;;;;;7.69;63.48;94740.50;10504618;28;19928;-79
2024/02/06 22:23:21;;;;;;;;;;;;;;;7.71;63.22;94743.72;10501401;28;19920;-80
2024/02/06 22:28:21;;;;;;;;;;;;;;;7.64;63.94;94738.56;10524446;28;19946;-79
2024/02/06 22:33:22;;;;;;;;;;;;;;;7.53;64.10;94740.38;10479568;28;19916;-78
2024/02/06 22:38:22;;;;;;;;;;;;;;;7.65;62.56;94737.50;10509177;28;20038;-78
2024/02/06 22:43:22;;;;;;;;;;;;;;;7.83;60.51;94739.00;10504443;28;19912;-76
2024/02/06 22:48:27;;;;;;;;;;;;;;;7.91;60.00;94743.09;10505172;28;19981;-81
2024/02/06 22:53:27;;;;;;;;;;;;;;;7.83;62.48;94733.66;10522310;28;19957;-78
2024/02/06 22:58:28;;;;;;;;;;;;;;;7.58;66.07;94742.28;10509295;28;20464;-78
2024/02/06 23:03:28;;;;;;;;;;;;;;;7.57;64.68;94737.19;10529888;28;19923;-82
2024/02/06 23:08:29;;;;;;;;;;;;;;;7.49;65.73;94730.41;10511664;28;19924;-78
2024/02/06 23:13:30;;;;;;;;;;;;;;;7.58;63.29;94736.91;10530133;28;20416;-78
2024/02/06 23:18:30;;;;;;;;;;;;;;;7.77;61.78;94726.66;10510080;28;19924;-77
2024/02/06 23:23:30;;;;;;;;;;;;;;;7.89;61.36;94729.16;10510623;28;19920;-77
2024/02/06 23:28:30;;;;;;;;;;;;;;;7.99;60.39;94718.50;10510729;28;20342;-81
2024/02/06 23:33:32;;;;;;;;;;;;;;;8.01;60.90;94716.41;10513937;28;19916;-81
2024/02/06 23:38:32;;;;;;;;;;;;;;;8.06;59.49;94729.00;10509906;28;19923;-83
2024/02/06 23:43:32;;;;;;;;;;;;;;;8.08;59.70;94720.72;10510062;28;20302;-80
2024/02/06 23:48:33;;;;;;;;;;;;;;;8.13;59.12;94716.19;10523385;28;19920;-83
2024/02/06 23:53:33;;;;;;;;;;;;;;;8.18;58.98;94718.91;10504572;28;19912;-81
2024/02/06 23:58:33;;;;;;;;;;;;;;;8.31;59.01;94724.88;10479844;28;19920;-78
